• Join FlightAware (Why Join?)
  • Login
  • US Flag 
01:19PM EST


 

Airport Tracker/Info


-or-


 

Live Flight TrackerFlight Track Log ✈ N111VR ✈ 06-Jun-2014 ✈ KOPF - MTPP / PAP

Flight Track Log - Related Links

Times and Time Zones

All times are in EDT time to prevent confusion due to time zone crossing. See the N111VR flight status page for this flight to view local times or setup timezone preferences in your user account.

Time Position Orientation Groundspeed Altitude Reporting Facility
EDT Latitude Longitude Course Direction KTS MPH feet Rate Location/Type
04:16PM 25.9167 -80.2325 86° East 167 192 1,200  Level Miami Center
04:16PM 25.9189 -80.1978 86° East 200 230 2,000 787 Climbing Miami Center
04:17PM 25.9208 -80.1806 83° East 199 229 2,000 1,271 Level Miami Center
04:18PM 25.9250 -80.1094 86° East 226 260 3,800 1,452 Climbing Miami Center
04:19PM 25.9308 -80.0203 86° East 241 277 5,000 581 Climbing Miami Center
04:20PM 25.9375 -79.9325 85° East 281 323 5,000  Level Miami Center
04:21PM 25.9589 -79.8550 73° East 267 307 5,000 528 Level Miami Center
04:22PM 26.0142 -79.8108 36° Northeast 246 283 6,100 1,488 Climbing Miami Center
04:23PM 26.0219 -79.7442 83° East 232 267 8,100 1,839 Climbing Miami Center
04:24PM 26.0133 -79.6711 97° East 239 275 9,900 1,887 Climbing Miami Center
04:25PM 26.0014 -79.5828 99° East 240 276 12,000 1,887 Climbing Miami Center
04:26PM 25.9914 -79.5064 98° East 248 285 13,800 1,645 Climbing Miami Center
04:27PM 25.9814 -79.4289 98° East 250 288 15,400 1,452 Climbing Miami Center
04:28PM 25.9703 -79.3494 99° East 259 298 16,800 1,392 Climbing Miami Center
04:29PM 25.9606 -79.2658 97° East 269 310 18,300 1,392 Climbing Miami Center
04:30PM 25.9486 -79.1811 99° East 273 314 19,700 1,403 Climbing Miami Center
04:31PM 25.9042 -79.0894 118° Southeast 295 339 21,200 1,258 Climbing Miami Center
04:32PM 25.8467 -79.0225 134° Southeast 297 342 22,300 823 Climbing Miami Center
04:33PM 25.7856 -78.9503 133° Southeast 308 354 22,900 726 Climbing Miami Center
04:34PM 25.7156 -78.8769 137° Southeast 335 386 23,800 912 Climbing Miami Center
04:35PM 25.6514 -78.8042 134° Southeast 334 384 24,800 960 Climbing Miami Center
04:36PM 25.5806 -78.7397 141° Southeast 331 381 25,800 1,065 Climbing Miami Center
04:38PM 25.4856 -78.6786 150° Southeast 330 380 27,000 1,016 Climbing Miami Center
04:39PM 25.4081 -78.6267 149° Southeast 329 379 27,900 871 Climbing Miami Center
04:40PM 25.3339 -78.5744 148° Southeast 321 369 28,800 823 Climbing Miami Center
04:41PM 25.2614 -78.5150 143° Southeast 322 371 29,600 726 Climbing Miami Center
04:42PM 25.1894 -78.4558 143° Southeast 322 371 30,300 677 Climbing Miami Center
04:43PM 25.1164 -78.3969 144° Southeast 322 371 31,000 672 Climbing Miami Center
04:44PM 25.0286 -78.3228 143° Southeast 328 377 31,700 576 Climbing Miami Center
04:45PM 24.9561 -78.2556 140° Southeast 336 387 32,200 484 Climbing Miami Center
04:46PM 24.8886 -78.1828 136° Southeast 339 390 32,700 484 Climbing Miami Center
04:47PM 24.8253 -78.1061 132° Southeast 339 390 33,200 532 Climbing Miami Center
04:48PM 24.7578 -78.0267 133° Southeast 339 390 33,800 581 Climbing Miami Center
04:49PM 24.7056 -77.9408 124° Southeast 341 392 34,400 581 Climbing Miami Center
04:50PM 24.6806 -77.8178 103° East 337 388 35,000 288 Climbing Miami Center
04:51PM 24.6525 -77.7178 107° East 339 390 35,000  Level Miami Center
04:52PM 24.6250 -77.6111 106° East 358 412 35,000  Level Miami Center
04:53PM 24.5953 -77.5036 107° East 363 418 35,000  Level Miami Center
04:54PM 24.5658 -77.3933 106° East 373 429 35,000  Level Miami Center
04:55PM 24.5136 -77.2944 120° Southeast 373 429 35,000  Level Miami Center
04:56PM 24.4133 -77.2122 143° Southeast 376 433 35,000  Level Miami Center
04:57PM 24.3339 -77.1356 139° Southeast 378 435 35,000  Level Miami Center
04:58PM 24.2550 -77.0583 138° Southeast 378 435 35,000  Level Miami Center
04:59PM 24.1758 -76.9814 138° Southeast 378 435 35,000  Level Miami Center
05:00PM 24.0978 -76.9039 138° Southeast 378 435 35,000  Level Miami Center
05:01PM 24.0175 -76.8281 139° Southeast 378 435 35,000  Level Miami Center
05:02PM 23.9225 -76.7364 139° Southeast 379 436 35,000  Level Miami Center
05:03PM 23.8442 -76.6594 138° Southeast 379 436 35,000  Level Miami Center
05:04PM 23.7644 -76.5831 139° Southeast 379 436 35,000  Level Miami Center
05:05PM 23.6853 -76.5067 139° Southeast 379 436 35,000  Level Miami Center
05:06PM 23.6044 -76.4289 139° Southeast 380 437 35,000  Level Miami Center
05:08PM 23.5236 -76.3511 139° Southeast 384 442 35,000  Level Miami Center
05:09PM 23.4253 -76.2572 139° Southeast 386 444 35,000  Level Miami Center
05:10PM 23.3439 -76.1800 139° Southeast 387 445 35,000  Level Miami Center
05:11PM 23.2622 -76.1017 139° Southeast 389 448 35,000  Level Miami Center
05:12PM 23.1811 -76.0244 139° Southeast 389 448 35,000  Level Miami Center
05:13PM 23.0994 -75.9467 139° Southeast 389 448 35,000  Level Miami Center
05:14PM 23.0006 -75.8522 139° Southeast 390 449 35,000  Level Miami Center
05:15PM 22.9172 -75.7736 139° Southeast 395 455 35,000  Level Miami Center
05:16PM 22.8339 -75.6950 139° Southeast 396 456 35,000  Level Miami Center
05:17PM 22.7500 -75.6167 139° Southeast 396 456 35,000  Level Miami Center
05:18PM 22.6658 -75.5383 139° Southeast 396 456 35,000  Level Miami Center
05:19PM 22.5811 -75.4586 139° Southeast 397 457 35,000  Level Miami Center
05:20PM 22.4783 -75.3644 140° Southeast 400 460 35,000  Level Miami Center
05:21PM 22.3931 -75.2847 139° Southeast 402 463 35,000  Level Miami Center
05:22PM 22.3083 -75.2039 139° Southeast 403 464 35,000  Level Miami Center
05:23PM 22.2219 -75.1250 140° Southeast 403 464 35,000  Level Miami Center
05:24PM 22.1364 -75.0431 138° Southeast 405 466 35,000  Level Miami Center
05:25PM 22.0497 -74.9631 139° Southeast 406 467 35,000  Level Miami Center
05:26PM 21.9450 -74.8658 139° Southeast 408 470 35,000  Level Miami Center
05:27PM 21.8578 -74.7858 140° Southeast 409 471 35,000  Level Miami Center
05:28PM 21.7708 -74.7047 139° Southeast 409 471 35,000  Level Miami Center
05:29PM 21.6828 -74.6197 138° Southeast 414 476 35,000  Level Miami Center
05:30PM 21.5944 -74.5383 139° Southeast 417 480 35,000 49 Level Miami Center
05:31PM 21.5083 -74.4586 139° Southeast 411 473 35,100 48 Climbing Miami Center
05:32PM 21.4203 -74.3783 140° Southeast 410 472 35,100 -48 Level Miami Center
05:33PM 21.3331 -74.2978 139° Southeast 410 472 35,000 -48 Descending Miami Center
05:34PM 21.2469 -74.2186 139° Southeast 410 472 35,000 -290 Level Miami Center
05:35PM 21.1403 -74.1208 139° Southeast 418 481 34,400 -532 Descending Miami Center
05:36PM 21.0483 -74.0364 139° Southeast 429 494 33,900 -484 Descending Miami Center
05:37PM 20.9558 -73.9517 139° Southeast 433 498 33,400 -484 Descending Miami Center
05:39PM 20.8633 -73.8672 140° Southeast 436 502 32,900 -484 Descending Miami Center
05:40PM 20.7708 -73.7822 139° Southeast 436 502 32,400 -484 Descending Miami Center
05:41PM 20.6778 -73.6989 140° Southeast 436 502 31,900 -532 Descending Miami Center
05:42PM 20.5664 -73.5978 140° Southeast 436 502 31,300 -435 Descending Miami Center
05:43PM 20.4758 -73.5156 140° Southeast 431 496 31,000 -968 Descending Miami Center
05:44PM 20.3869 -73.4356 140° Southeast 422 486 29,300 -1,694 Descending Miami Center
05:45PM 20.3047 -73.3625 140° Southeast 392 451 27,500 -1,500 Descending Miami Center
05:46PM 20.2206 -73.2864 140° Southeast 390 449 26,200 -1,210 Descending Miami Center
05:47PM 20.1331 -73.2111 141° Southeast 398 458 25,000 -1,161 Descending Miami Center
05:49PM 19.9898 -73.1282 151° Southeast  Level FlightAware Approximate
05:56PM 19.4134 -72.7916 149° Southeast  Level FlightAware Approximate
05:57PM 19.3324 -72.7411 149° Southeast  Level FlightAware Approximate
05:58PM 19.2510 -72.6913 152° Southeast  Level FlightAware Approximate
05:59PM 19.1678 -72.6451 152° Southeast  Level FlightAware Approximate
06:00PM 19.0839 -72.6003 155° Southeast  Level FlightAware Approximate
06:01PM 19.0044 -72.5473 148° Southeast  Level FlightAware Approximate
06:02PM 18.9243 -72.4955 155° Southeast  Level FlightAware Approximate
06:03PM 18.8393 -72.4530 155° Southeast  Level FlightAware Approximate
06:04PM 18.7569 -72.4061 159° South  Level FlightAware Approximate
06:05PM 18.6730 -72.3631 145° Southeast  Level FlightAware Approximate
06:06PM 18.5924 -72.3129 155° Southeast  Level FlightAware Approximate
06:07PM 18.5667 -72.3000 North  Level FlightAware Approximate
06:08PM 18.5800 -72.2925 North  Level Estimated
06:09PM 18.5800 -72.2925 North  Level Estimated
06:10PM 18.5800 -72.2925 North  Level Estimated
06:11PM 18.5800 -72.2925 North  Level Estimated
06:12PM 18.5800 -72.2925 North  Level Estimated
06:13PM 18.5800 -72.2925 North  Level Estimated
06:14PM 18.5800 -72.2925 North  Level Estimated
06:15PM 18.5800 -72.2925 North  Level Estimated
06:16PM 18.5800 -72.2925 North  Level Estimated
06:17PM 18.5800 -72.2925 North  Level Estimated
06:18PM 18.5800 -72.2925 North  Level Estimated
06:19PM 18.5800 -72.2925 North  Level Estimated
06:20PM 18.5800 -72.2925 North  Level Estimated
06:21PM 18.5800 -72.2925 North  Level Estimated
06:22PM 18.5800 -72.2925 North  Level Estimated
06:23PM 18.5800 -72.2925 North  Level Estimated
06:24PM 18.5800 -72.2925 North  Level Estimated
06:25PM 18.5800 -72.2925 North  Level Estimated
06:26PM 18.5800 -72.2925 North  Level Estimated
06:27PM 18.5800 -72.2925 North  Level Estimated